createdAt,value
2023-03-29T00:02:05.515Z,43.94
2023-03-29T00:04:34.384Z,45.18
2023-03-29T00:07:04.730Z,45.44
2023-03-29T00:09:33.400Z,45.01
2023-03-29T00:12:01.235Z,43.83
2023-03-29T00:14:30.806Z,43.92
2023-03-29T00:16:58.372Z,43.07
2023-03-29T00:19:25.604Z,42.34
2023-03-29T00:21:52.777Z,42.94
2023-03-29T00:24:21.244Z,42.46
2023-03-29T00:26:49.035Z,41.67
2023-03-29T00:29:16.322Z,41.46
2023-03-29T00:31:46.051Z,41.77
2023-03-29T00:34:13.724Z,41.66
2023-03-29T00:36:41.613Z,41.29
2023-03-29T00:39:09.733Z,41.28
2023-03-29T00:41:36.761Z,41.07
2023-03-29T00:44:04.751Z,41.18
2023-03-29T00:46:32.143Z,41.90
2023-03-29T00:49:12.852Z,42.15
2023-03-29T00:51:39.910Z,41.97
2023-03-29T00:54:08.857Z,42.27
2023-03-29T00:56:40.152Z,42.27
2023-03-29T00:59:16.233Z,43.36
2023-03-29T01:02:06.163Z,44.71
2023-03-29T01:04:50.945Z,45.76
2023-03-29T01:07:21.957Z,44.83
2023-03-29T01:09:54.923Z,45.33
2023-03-29T01:12:29.215Z,45.70
2023-03-29T01:15:04.302Z,46.89
2023-03-29T01:17:31.726Z,46.99
2023-03-29T01:20:10.765Z,46.90
2023-03-29T01:23:05.811Z,47.13
2023-03-29T01:25:57.944Z,48.58
2023-03-29T01:28:29.331Z,49.47
2023-03-29T01:31:08.620Z,49.60
2023-03-29T01:33:46.834Z,48.96
2023-03-29T01:36:29.436Z,48.54
2023-03-29T01:38:57.810Z,49.77
2023-03-29T01:41:34.770Z,49.77
2023-03-29T01:44:22.909Z,49.91
2023-03-29T01:46:55.125Z,49.92
2023-03-29T01:49:42.727Z,51.39
2023-03-29T01:52:24.839Z,53.47
2023-03-29T01:54:58.394Z,55.02
2023-03-29T01:57:25.872Z,55.04
2023-03-29T01:59:53.375Z,55.69
2023-03-29T02:02:20.779Z,54.86
2023-03-29T02:04:51.815Z,54.95
2023-03-29T02:07:21.110Z,54.76
2023-03-29T02:09:48.956Z,55.59
2023-03-29T02:12:16.346Z,54.62
2023-03-29T02:14:43.420Z,54.94
2023-03-29T02:17:23.385Z,53.96
2023-03-29T02:20:05.558Z,53.67
2023-03-29T02:22:38.043Z,53.71
2023-03-29T02:25:08.442Z,54.15
2023-03-29T02:27:38.221Z,54.68
2023-03-29T02:30:07.393Z,54.93
2023-03-29T02:32:40.482Z,54.69
2023-03-29T02:35:08.613Z,54.68
2023-03-29T02:37:36.432Z,54.17
2023-03-29T02:40:08.102Z,54.88
2023-03-29T02:42:45.194Z,55.63
2023-03-29T02:45:16.187Z,54.71
2023-03-29T02:47:49.819Z,53.93
2023-03-29T02:50:17.323Z,53.18
2023-03-29T02:52:50.968Z,52.68
2023-03-29T02:55:17.984Z,52.90
2023-03-29T02:57:45.955Z,53.97
2023-03-29T03:00:14.702Z,53.60
2023-03-29T03:02:41.952Z,54.74
2023-03-29T03:05:10.768Z,55.29
2023-03-29T03:07:40.658Z,54.30
2023-03-29T03:10:10.210Z,54.29
2023-03-29T03:12:38.486Z,53.82
2023-03-29T03:15:06.688Z,54.99
2023-03-29T03:17:33.869Z,54.68
2023-03-29T03:20:01.058Z,55.50
2023-03-29T03:22:28.530Z,55.43
2023-03-29T03:24:56.320Z,55.83
2023-03-29T03:27:23.300Z,55.71
2023-03-29T03:29:50.623Z,54.94
2023-03-29T03:32:37.754Z,54.51
2023-03-29T03:35:31.211Z,54.34
2023-03-29T03:37:58.948Z,54.06
2023-03-29T03:40:27.861Z,53.47
2023-03-29T03:42:55.986Z,53.66
2023-03-29T03:45:23.361Z,53.88
2023-03-29T03:47:54.621Z,54.68
2023-03-29T03:50:55.414Z,54.61
2023-03-29T03:53:23.610Z,55.51
2023-03-29T03:56:20.656Z,54.31
2023-03-29T03:59:10.924Z,55.30
2023-03-29T04:01:47.829Z,54.96
2023-03-29T04:04:20.074Z,55.88
2023-03-29T04:07:05.108Z,55.36
2023-03-29T04:09:57.583Z,55.87
2023-03-29T04:12:43.786Z,54.80
2023-03-29T04:15:12.276Z,55.17
2023-03-29T04:17:46.087Z,55.51
2023-03-29T04:20:30.019Z,56.68
2023-03-29T04:22:58.719Z,56.29
2023-03-29T04:25:26.203Z,55.69
2023-03-29T04:27:56.238Z,55.35
2023-03-29T04:30:41.880Z,54.90
2023-03-29T04:33:16.474Z,55.16
2023-03-29T04:35:48.566Z,54.39
2023-03-29T04:38:17.872Z,54.89
2023-03-29T04:40:47.140Z,54.10
2023-03-29T04:43:39.652Z,53.03
2023-03-29T04:46:21.193Z,53.35
2023-03-29T04:49:12.791Z,52.39
2023-03-29T04:51:42.536Z,52.62
2023-03-29T04:54:10.652Z,53.85
2023-03-29T04:57:00.455Z,53.75
2023-03-29T04:59:39.646Z,52.99
2023-03-29T05:02:18.783Z,52.81
2023-03-29T05:04:49.486Z,53.87
2023-03-29T05:07:19.605Z,53.66
2023-03-29T05:09:47.564Z,54.85
2023-03-29T05:12:14.903Z,54.17
2023-03-29T05:14:53.333Z,56.86
2023-03-29T05:17:23.289Z,56.16
2023-03-29T05:19:51.355Z,55.88
2023-03-29T05:22:18.984Z,54.98
2023-03-29T05:24:46.564Z,54.04
2023-03-29T05:27:17.306Z,54.53
2023-03-29T05:29:52.494Z,53.91
2023-03-29T05:32:32.025Z,53.80
2023-03-29T05:34:59.289Z,53.14
2023-03-29T05:37:26.779Z,53.26
2023-03-29T05:40:06.056Z,52.46
2023-03-29T05:42:40.377Z,52.09
2023-03-29T05:45:11.502Z,52.85
2023-03-29T05:47:40.121Z,55.38
2023-03-29T05:50:09.840Z,54.40
2023-03-29T05:52:37.684Z,53.31
2023-03-29T05:55:05.249Z,52.47
2023-03-29T05:57:32.625Z,52.66
2023-03-29T05:59:59.721Z,51.98
2023-03-29T06:02:28.712Z,52.54
2023-03-29T06:04:57.488Z,52.25
2023-03-29T06:07:24.749Z,52.33
2023-03-29T06:10:26.914Z,52.69
2023-03-29T06:13:06.356Z,52.80
2023-03-29T06:15:35.005Z,52.40
2023-03-29T06:18:06.216Z,52.96
2023-03-29T06:20:35.140Z,54.18
2023-03-29T06:23:08.771Z,54.07
2023-03-29T06:25:35.959Z,53.37
2023-03-29T06:28:03.956Z,52.58
2023-03-29T06:30:32.241Z,52.29
2023-03-29T06:33:01.198Z,53.29
2023-03-29T06:35:54.479Z,53.43
2023-03-29T06:38:28.910Z,53.44
2023-03-29T06:41:05.415Z,53.17
2023-03-29T06:43:50.141Z,53.20
2023-03-29T06:46:46.255Z,53.24
2023-03-29T06:49:15.033Z,52.35
2023-03-29T06:51:54.093Z,52.56
2023-03-29T06:54:21.521Z,52.13
2023-03-29T06:56:59.894Z,51.42
2023-03-29T06:59:29.013Z,52.25
2023-03-29T07:02:10.067Z,52.60
2023-03-29T07:04:52.230Z,52.62
2023-03-29T07:07:33.349Z,52.26
2023-03-29T07:10:13.242Z,50.99
2023-03-29T07:13:06.661Z,50.90
2023-03-29T07:15:33.755Z,51.68
2023-03-29T07:18:18.440Z,51.71
2023-03-29T07:20:48.561Z,50.82
2023-03-29T07:23:15.616Z,51.59
2023-03-29T07:25:42.705Z,50.93
2023-03-29T07:28:11.272Z,50.90
2023-03-29T07:30:38.753Z,52.06
2023-03-29T07:33:18.376Z,53.04
2023-03-29T07:36:02.496Z,52.65
2023-03-29T07:38:29.988Z,52.77
2023-03-29T07:41:17.597Z,51.85
2023-03-29T07:43:52.536Z,52.36
2023-03-29T07:46:25.202Z,51.40
2023-03-29T07:48:52.396Z,51.26
2023-03-29T07:51:20.235Z,50.89
2023-03-29T07:53:55.062Z,50.81
2023-03-29T07:56:51.372Z,51.37
2023-03-29T07:59:18.717Z,53.19
2023-03-29T08:01:52.314Z,52.46
2023-03-29T08:04:46.198Z,52.45
2023-03-29T08:07:14.826Z,51.35
2023-03-29T08:10:09.903Z,53.79
2023-03-29T08:13:12.516Z,52.39
2023-03-29T08:15:51.028Z,52.08
2023-03-29T08:18:31.641Z,51.22
2023-03-29T08:21:01.644Z,51.14
2023-03-29T08:23:29.179Z,51.27
2023-03-29T08:26:09.541Z,52.82
2023-03-29T08:28:38.386Z,53.79
2023-03-29T08:31:07.672Z,51.78
2023-03-29T08:33:35.781Z,50.80
2023-03-29T08:36:29.330Z,51.06
2023-03-29T08:39:02.070Z,49.81
2023-03-29T08:41:42.900Z,49.19
2023-03-29T08:44:29.996Z,49.55
2023-03-29T08:47:24.374Z,50.36
2023-03-29T08:49:53.315Z,49.69
2023-03-29T08:52:40.254Z,49.09
2023-03-29T08:55:28.630Z,48.84
2023-03-29T08:58:20.817Z,49.45
2023-03-29T09:00:50.780Z,50.10
2023-03-29T09:03:26.386Z,48.54
2023-03-29T09:05:59.744Z,48.34
2023-03-29T09:08:27.811Z,48.75
2023-03-29T09:11:14.517Z,50.32
2023-03-29T09:13:51.870Z,49.66
2023-03-29T09:16:33.750Z,48.69
2023-03-29T09:19:23.018Z,47.13
2023-03-29T09:22:05.665Z,48.94
2023-03-29T09:24:35.866Z,47.75
2023-03-29T09:27:15.829Z,50.51
2023-03-29T09:29:56.860Z,49.84
2023-03-29T09:32:55.051Z,48.50
2023-03-29T09:35:43.779Z,49.95
2023-03-29T09:38:11.569Z,49.78
2023-03-29T09:40:48.779Z,49.08
2023-03-29T09:43:36.754Z,48.56
2023-03-29T09:46:18.295Z,48.00
2023-03-29T09:48:47.278Z,46.84
2023-03-29T09:51:14.744Z,48.42
2023-03-29T09:53:41.811Z,47.94
2023-03-29T09:56:21.733Z,48.41
2023-03-29T09:58:51.841Z,45.77
2023-03-29T10:01:20.817Z,46.47
2023-03-29T10:03:53.468Z,46.91
2023-03-29T10:06:24.286Z,45.47
2023-03-29T10:08:57.970Z,43.92
2023-03-29T10:11:36.031Z,44.70
2023-03-29T10:14:15.046Z,43.68
2023-03-29T10:16:46.294Z,45.78
2023-03-29T10:19:22.402Z,45.90
2023-03-29T10:21:53.998Z,46.35
2023-03-29T10:24:22.008Z,44.48
2023-03-29T10:26:55.863Z,45.39
2023-03-29T10:29:24.154Z,45.06
2023-03-29T10:31:52.978Z,44.87
2023-03-29T10:34:20.055Z,44.95
2023-03-29T10:36:59.025Z,43.20
2023-03-29T10:39:28.887Z,43.08
2023-03-29T10:42:01.329Z,44.90
2023-03-29T10:44:33.065Z,45.57
2023-03-29T10:47:09.773Z,46.00
2023-03-29T10:49:42.005Z,45.67
2023-03-29T10:52:09.594Z,46.12
2023-03-29T10:54:36.858Z,44.52
2023-03-29T10:57:08.822Z,44.11
2023-03-29T10:59:51.005Z,44.91
2023-03-29T11:03:00.289Z,44.91
2023-03-29T11:05:50.950Z,44.64
2023-03-29T11:08:30.411Z,43.65
2023-03-29T11:11:14.860Z,44.65
2023-03-29T11:13:58.018Z,43.20
2023-03-29T11:16:33.697Z,43.18
2023-03-29T11:19:04.012Z,42.44
2023-03-29T11:21:48.327Z,43.08
2023-03-29T11:24:49.851Z,42.33
2023-03-29T11:27:23.458Z,41.17
2023-03-29T11:30:10.771Z,40.64
2023-03-29T11:33:03.151Z,41.00
2023-03-29T11:35:45.244Z,40.76
2023-03-29T11:38:26.806Z,40.89
2023-03-29T11:41:08.434Z,38.76
2023-03-29T11:43:36.398Z,40.12
2023-03-29T11:46:14.244Z,40.37
2023-03-29T11:48:47.720Z,40.70
2023-03-29T11:51:21.753Z,39.59
2023-03-29T11:54:10.691Z,39.51
2023-03-29T11:56:46.937Z,39.38
2023-03-29T11:59:18.631Z,40.56
2023-03-29T12:01:54.437Z,39.03
2023-03-29T12:04:28.948Z,40.37
2023-03-29T12:07:12.140Z,38.27
2023-03-29T12:09:52.005Z,39.33
2023-03-29T12:12:27.601Z,41.06
2023-03-29T12:15:00.880Z,42.17
2023-03-29T12:17:52.791Z,39.91
2023-03-29T12:20:23.532Z,41.81
2023-03-29T12:22:51.938Z,41.58
2023-03-29T12:25:35.339Z,40.24
2023-03-29T12:28:03.382Z,40.07
2023-03-29T12:30:42.647Z,39.66
2023-03-29T12:33:23.062Z,39.58
2023-03-29T12:36:11.799Z,39.14
2023-03-29T12:39:17.871Z,38.39
2023-03-29T12:42:23.885Z,38.89
2023-03-29T12:45:21.413Z,39.27
2023-03-29T12:47:49.590Z,38.72
2023-03-29T12:50:24.967Z,39.98
2023-03-29T12:52:53.291Z,40.57
2023-03-29T12:55:34.753Z,38.31
2023-03-29T12:58:06.936Z,37.72
2023-03-29T13:00:37.221Z,38.40
2023-03-29T13:03:24.335Z,38.85
2023-03-29T13:06:02.634Z,40.09
2023-03-29T13:08:33.850Z,40.51
2023-03-29T13:11:01.037Z,40.77
2023-03-29T13:13:33.431Z,39.60
2023-03-29T13:16:11.186Z,38.88
2023-03-29T13:18:50.400Z,40.24
2023-03-29T13:21:29.230Z,38.96
2023-03-29T13:24:26.284Z,39.06
2023-03-29T13:27:21.877Z,38.48
2023-03-29T13:30:24.414Z,38.24
2023-03-29T13:33:11.247Z,37.85
2023-03-29T13:35:50.587Z,37.32
2023-03-29T13:38:26.580Z,37.26
2023-03-29T13:40:53.584Z,37.95
2023-03-29T13:43:31.430Z,38.96
2023-03-29T13:45:58.543Z,38.90
2023-03-29T13:48:27.323Z,38.91
2023-03-29T13:51:07.436Z,38.85
2023-03-29T13:53:38.359Z,39.73
2023-03-29T13:56:06.300Z,38.61
2023-03-29T13:58:45.197Z,38.73
2023-03-29T14:01:17.970Z,38.00
2023-03-29T14:03:46.697Z,37.84
2023-03-29T14:06:15.642Z,36.93
2023-03-29T14:08:43.461Z,37.27
2023-03-29T14:11:19.693Z,37.50
2023-03-29T14:13:47.505Z,38.25
2023-03-29T14:16:14.855Z,38.21
2023-03-29T14:18:46.947Z,38.31
2023-03-29T14:21:14.712Z,37.56
2023-03-29T14:23:43.959Z,36.44
2023-03-29T14:26:19.595Z,36.63
2023-03-29T14:28:48.914Z,36.20
2023-03-29T14:31:33.736Z,36.95
2023-03-29T14:34:02.485Z,37.40
2023-03-29T14:36:31.141Z,37.21
2023-03-29T14:39:22.044Z,36.45
2023-03-29T14:41:51.237Z,37.31
2023-03-29T14:44:19.158Z,36.36
2023-03-29T14:46:47.611Z,35.85
2023-03-29T14:49:18.559Z,37.04
2023-03-29T14:51:45.750Z,36.93
2023-03-29T14:54:25.209Z,36.46
2023-03-29T14:56:54.044Z,35.49
2023-03-29T14:59:36.815Z,36.65
2023-03-29T15:02:04.839Z,36.41
2023-03-29T15:04:33.859Z,37.37
2023-03-29T15:07:01.112Z,36.29
2023-03-29T15:09:32.644Z,36.19
2023-03-29T15:12:01.443Z,34.85
2023-03-29T15:14:34.018Z,35.23
2023-03-29T15:17:14.813Z,34.96
2023-03-29T15:19:41.857Z,34.54
2023-03-29T15:22:11.317Z,33.44
2023-03-29T15:24:43.593Z,35.35
2023-03-29T15:27:15.986Z,35.32
2023-03-29T15:29:43.314Z,35.74
2023-03-29T15:32:19.674Z,35.58
2023-03-29T15:34:47.584Z,34.21
2023-03-29T15:37:14.885Z,33.94
2023-03-29T15:39:44.328Z,35.04
2023-03-29T15:42:11.429Z,35.24
2023-03-29T15:44:38.852Z,34.22
2023-03-29T15:47:12.799Z,33.75
2023-03-29T15:49:39.901Z,34.44
2023-03-29T15:52:07.392Z,34.10
2023-03-29T15:54:36.838Z,33.94
2023-03-29T15:57:08.490Z,33.69
2023-03-29T15:59:36.509Z,34.23
2023-03-29T16:02:05.226Z,35.11
2023-03-29T16:04:32.373Z,34.15
2023-03-29T16:06:59.388Z,33.95
2023-03-29T16:09:27.955Z,34.35
2023-03-29T16:11:55.620Z,33.57
2023-03-29T16:14:27.824Z,33.66
2023-03-29T16:17:01.468Z,34.16
2023-03-29T16:19:29.887Z,35.48
2023-03-29T16:21:57.456Z,36.06
2023-03-29T16:24:29.070Z,35.21
2023-03-29T16:26:57.077Z,34.80
2023-03-29T16:29:25.396Z,34.50
2023-03-29T16:31:55.021Z,35.39
2023-03-29T16:34:22.859Z,35.74
2023-03-29T16:36:50.034Z,35.58
2023-03-29T16:39:18.448Z,36.04
2023-03-29T16:41:49.165Z,35.34
2023-03-29T16:44:18.518Z,35.06
2023-03-29T16:46:46.543Z,34.93
2023-03-29T16:49:18.317Z,35.20
2023-03-29T16:51:46.864Z,35.62
2023-03-29T16:54:14.370Z,34.80
2023-03-29T16:56:41.539Z,35.10
2023-03-29T16:59:09.717Z,35.47
2023-03-29T17:01:37.412Z,35.35
2023-03-29T17:04:05.667Z,34.94
2023-03-29T17:06:32.994Z,35.70
2023-03-29T17:09:00.852Z,36.19
2023-03-29T17:11:28.445Z,36.11
2023-03-29T17:13:55.959Z,35.27
2023-03-29T17:16:23.995Z,36.19
2023-03-29T17:18:51.094Z,36.09
2023-03-29T17:21:18.177Z,36.75
2023-03-29T17:23:45.461Z,37.43
2023-03-29T17:26:13.468Z,36.83
2023-03-29T17:28:40.973Z,36.86
2023-03-29T17:31:08.255Z,36.60
2023-03-29T17:33:36.137Z,37.67
2023-03-29T17:36:05.205Z,36.94
2023-03-29T17:38:34.213Z,37.08
2023-03-29T17:41:03.896Z,36.19
2023-03-29T17:43:31.948Z,37.75
2023-03-29T17:45:58.978Z,37.33
2023-03-29T17:48:26.057Z,36.79
2023-03-29T17:50:56.066Z,38.53
2023-03-29T17:53:23.145Z,39.25
2023-03-29T17:55:50.454Z,39.04
2023-03-29T17:58:17.509Z,39.56
2023-03-29T18:00:44.933Z,40.44
2023-03-29T18:03:12.125Z,39.72
2023-03-29T18:05:39.806Z,39.08
2023-03-29T18:08:08.193Z,40.73
2023-03-29T18:10:37.747Z,39.92
2023-03-29T18:13:05.005Z,39.68
2023-03-29T18:15:31.996Z,39.60
2023-03-29T18:17:59.072Z,39.20
2023-03-29T18:20:27.926Z,39.39
2023-03-29T18:22:55.023Z,39.87
2023-03-29T18:25:24.074Z,38.51
2023-03-29T18:27:51.564Z,38.61
2023-03-29T18:30:18.833Z,39.31
2023-03-29T18:32:47.080Z,39.29
2023-03-29T18:35:14.098Z,39.60
2023-03-29T18:37:41.225Z,39.78
2023-03-29T18:40:09.306Z,42.13
2023-03-29T18:42:36.855Z,41.94
2023-03-29T18:45:04.803Z,44.02
2023-03-29T18:47:31.996Z,46.34
2023-03-29T18:49:59.070Z,47.29
2023-03-29T18:52:26.245Z,48.10
2023-03-29T18:54:53.327Z,48.48
2023-03-29T18:57:20.606Z,48.65
2023-03-29T18:59:47.587Z,50.76
2023-03-29T19:02:15.782Z,52.00
2023-03-29T19:04:43.023Z,52.30
2023-03-29T19:07:10.198Z,52.86
2023-03-29T19:09:37.368Z,51.64
2023-03-29T19:12:04.543Z,51.28
2023-03-29T19:14:31.710Z,52.21
2023-03-29T19:16:58.886Z,52.08
2023-03-29T19:19:26.424Z,51.94
2023-03-29T19:21:53.524Z,49.99
2023-03-29T19:24:22.129Z,49.95
2023-03-29T19:26:51.664Z,48.20
2023-03-29T19:29:18.834Z,48.44
2023-03-29T19:31:46.276Z,49.82
2023-03-29T19:34:13.781Z,48.77
2023-03-29T19:36:40.810Z,48.55
2023-03-29T19:39:07.855Z,48.32
2023-03-29T19:41:34.988Z,49.91
2023-03-29T19:44:02.234Z,50.61
2023-03-29T19:46:29.567Z,49.20
2023-03-29T19:48:56.680Z,49.04
2023-03-29T19:51:23.965Z,49.08
2023-03-29T19:53:51.326Z,49.10
2023-03-29T19:56:18.460Z,48.92
2023-03-29T19:58:46.923Z,48.63
2023-03-29T20:01:15.746Z,48.84
2023-03-29T20:03:44.014Z,48.19
2023-03-29T20:06:11.357Z,48.81
2023-03-29T20:08:39.289Z,49.62
2023-03-29T20:11:10.580Z,51.00
2023-03-29T20:13:41.505Z,50.75
2023-03-29T20:16:10.301Z,51.07
2023-03-29T20:18:40.497Z,50.89
2023-03-29T20:21:07.876Z,51.43
2023-03-29T20:23:35.428Z,52.52
2023-03-29T20:26:02.601Z,53.97
2023-03-29T20:28:30.176Z,53.66
2023-03-29T20:30:57.184Z,53.12
2023-03-29T20:33:24.335Z,51.52
2023-03-29T20:35:51.488Z,50.61
2023-03-29T20:38:18.522Z,49.96
2023-03-29T20:40:45.549Z,48.70
2023-03-29T20:43:18.517Z,49.17
2023-03-29T20:45:53.486Z,49.72
2023-03-29T20:48:30.477Z,49.93
2023-03-29T20:50:57.894Z,49.11
2023-03-29T20:53:25.973Z,48.98
2023-03-29T20:55:53.194Z,48.92
2023-03-29T20:58:20.491Z,48.56
2023-03-29T21:00:48.422Z,48.42
2023-03-29T21:03:15.875Z,48.57
2023-03-29T21:05:43.626Z,48.15
2023-03-29T21:08:11.031Z,48.38
2023-03-29T21:10:38.054Z,48.88
2023-03-29T21:13:05.135Z,47.85
2023-03-29T21:15:33.368Z,48.13
2023-03-29T21:18:00.448Z,48.08
2023-03-29T21:20:27.701Z,48.73
2023-03-29T21:22:56.525Z,48.12
2023-03-29T21:25:23.796Z,48.52
2023-03-29T21:27:50.859Z,49.79
2023-03-29T21:30:17.813Z,48.84
2023-03-29T21:32:44.945Z,49.08
2023-03-29T21:35:12.391Z,49.62
2023-03-29T21:37:39.597Z,49.13
2023-03-29T21:40:07.236Z,49.33
2023-03-29T21:42:34.345Z,49.16
2023-03-29T21:45:01.606Z,48.93
2023-03-29T21:47:29.024Z,49.38
2023-03-29T21:49:56.196Z,49.40
2023-03-29T21:52:23.251Z,49.54
2023-03-29T21:54:50.595Z,49.86
2023-03-29T21:57:17.765Z,49.55
2023-03-29T21:59:44.866Z,51.60
2023-03-29T22:02:12.279Z,52.17
2023-03-29T22:04:39.414Z,51.45
2023-03-29T22:07:06.593Z,51.34
2023-03-29T22:09:35.460Z,51.16
2023-03-29T22:12:03.363Z,50.63
2023-03-29T22:14:34.785Z,50.31
2023-03-29T22:17:07.920Z,50.06
2023-03-29T22:19:39.227Z,50.07
2023-03-29T22:22:13.530Z,50.54
2023-03-29T22:24:41.545Z,50.71
2023-03-29T22:27:09.007Z,50.12
2023-03-29T22:29:36.122Z,50.12
2023-03-29T22:32:03.234Z,49.84
2023-03-29T22:34:30.416Z,49.57
2023-03-29T22:36:57.756Z,50.09
2023-03-29T22:39:24.814Z,49.94
2023-03-29T22:41:51.750Z,49.48
2023-03-29T22:44:18.816Z,49.06
2023-03-29T22:46:45.909Z,48.79
2023-03-29T22:49:13.158Z,48.65
2023-03-29T22:51:40.193Z,49.33
2023-03-29T22:54:07.246Z,49.62
2023-03-29T22:56:34.388Z,49.11
2023-03-29T22:59:01.491Z,49.07
2023-03-29T23:01:28.601Z,48.80
2023-03-29T23:03:55.746Z,48.99
2023-03-29T23:06:22.965Z,48.90
2023-03-29T23:08:50.013Z,49.20
2023-03-29T23:11:17.138Z,48.84
2023-03-29T23:13:44.128Z,48.60
2023-03-29T23:16:11.217Z,49.00
2023-03-29T23:18:39.151Z,49.02
2023-03-29T23:21:07.642Z,48.96
2023-03-29T23:23:35.037Z,49.00
2023-03-29T23:26:02.627Z,50.14
2023-03-29T23:28:34.706Z,49.94
2023-03-29T23:31:07.113Z,50.02
2023-03-29T23:33:35.777Z,50.24
2023-03-29T23:36:04.337Z,50.67
2023-03-29T23:38:33.344Z,50.98
2023-03-29T23:41:02.578Z,50.08
2023-03-29T23:43:32.715Z,50.15
2023-03-29T23:46:01.658Z,50.32
2023-03-29T23:48:28.705Z,50.51
2023-03-29T23:50:58.607Z,50.18
2023-03-29T23:53:28.671Z,49.88
2023-03-29T23:56:00.467Z,49.83
2023-03-29T23:58:31.959Z,49.37
